New Market, Minnesota
Current Conditions -  °F | °C
As of 12:21 AM on Wednesday 28 Jan 2015 (Local Time) from KLVN Reporting Station
Overcast Overcast  
Wind Chill: 20°   Ceiling: 1100
Heat Index: 28°   Visibility: 10mi
Dew Point: 27°   Wind: 9mph
Humidity: 93%   Direction: 140°SE
Pressure: 30.11"   Gusts: NA
Location:  44.57°N, 93.35°W
Report Text: KLVN 280621Z AUTO 14008KT 10SM OVC011 M02/M03 A3011 RMK AO2
Loading
Personal Weather Stations






























Interactive Weather Map New forecast layout! Learn more

10-Day Weather Forecast

Advertisements
Track Severe Weather on mobile